sensor_id;sensor_type;location;lat;lon;timestamp;temperature;humidity
26579;DHT22;14227;47.674;19.320;2022-07-06T00:01:19;23.60;50.20
26579;DHT22;14227;47.674;19.320;2022-07-06T00:03:45;23.60;50.10
26579;DHT22;14227;47.674;19.320;2022-07-06T00:06:11;23.60;50.10
26579;DHT22;14227;47.674;19.320;2022-07-06T00:08:37;23.60;50.00
26579;DHT22;14227;47.674;19.320;2022-07-06T00:11:04;23.60;50.10
26579;DHT22;14227;47.674;19.320;2022-07-06T00:13:30;23.60;50.10
26579;DHT22;14227;47.674;19.320;2022-07-06T00:15:56;23.60;50.10
26579;DHT22;14227;47.674;19.320;2022-07-06T00:18:22;23.60;50.00
26579;DHT22;14227;47.674;19.320;2022-07-06T00:20:48;23.60;50.00
26579;DHT22;14227;47.674;19.320;2022-07-06T00:23:13;23.50;49.80
26579;DHT22;14227;47.674;19.320;2022-07-06T00:25:39;23.60;50.00
26579;DHT22;14227;47.674;19.320;2022-07-06T00:28:04;23.50;49.80
26579;DHT22;14227;47.674;19.320;2022-07-06T00:30:30;23.50;49.70
26579;DHT22;14227;47.674;19.320;2022-07-06T00:32:57;23.50;49.70
26579;DHT22;14227;47.674;19.320;2022-07-06T00:35:24;23.50;49.60
26579;DHT22;14227;47.674;19.320;2022-07-06T00:37:50;23.50;49.60
26579;DHT22;14227;47.674;19.320;2022-07-06T00:40:15;23.50;49.60
26579;DHT22;14227;47.674;19.320;2022-07-06T00:42:45;23.50;49.60
26579;DHT22;14227;47.674;19.320;2022-07-06T00:45:12;23.50;49.60
26579;DHT22;14227;47.674;19.320;2022-07-06T00:47:39;23.50;49.60
26579;DHT22;14227;47.674;19.320;2022-07-06T00:50:06;23.50;49.70
26579;DHT22;14227;47.674;19.320;2022-07-06T00:53:09;23.50;49.50
26579;DHT22;14227;47.674;19.320;2022-07-06T00:55:37;23.50;49.30
26579;DHT22;14227;47.674;19.320;2022-07-06T00:58:08;23.50;49.40
26579;DHT22;14227;47.674;19.320;2022-07-06T01:00:34;23.50;49.50
26579;DHT22;14227;47.674;19.320;2022-07-06T01:03:00;23.50;49.40
26579;DHT22;14227;47.674;19.320;2022-07-06T01:05:27;23.50;49.30
26579;DHT22;14227;47.674;19.320;2022-07-06T01:07:53;23.50;49.20
26579;DHT22;14227;47.674;19.320;2022-07-06T01:10:20;23.50;49.00
26579;DHT22;14227;47.674;19.320;2022-07-06T01:12:47;23.50;49.20
26579;DHT22;14227;47.674;19.320;2022-07-06T01:15:16;23.50;49.00
26579;DHT22;14227;47.674;19.320;2022-07-06T01:17:43;23.50;48.90
26579;DHT22;14227;47.674;19.320;2022-07-06T01:22:37;23.50;48.70
26579;DHT22;14227;47.674;19.320;2022-07-06T01:25:04;23.40;48.80
26579;DHT22;14227;47.674;19.320;2022-07-06T01:27:30;23.40;48.80
26579;DHT22;14227;47.674;19.320;2022-07-06T01:29:56;23.40;48.80
26579;DHT22;14227;47.674;19.320;2022-07-06T01:32:21;23.40;49.00
26579;DHT22;14227;47.674;19.320;2022-07-06T01:34:47;23.30;48.90
26579;DHT22;14227;47.674;19.320;2022-07-06T01:37:13;23.30;49.00
26579;DHT22;14227;47.674;19.320;2022-07-06T01:39:38;23.20;49.20
26579;DHT22;14227;47.674;19.320;2022-07-06T01:42:05;23.20;49.20
26579;DHT22;14227;47.674;19.320;2022-07-06T01:44:30;23.20;49.20
26579;DHT22;14227;47.674;19.320;2022-07-06T01:46:56;23.20;49.20
26579;DHT22;14227;47.674;19.320;2022-07-06T01:49:22;23.20;49.30
26579;DHT22;14227;47.674;19.320;2022-07-06T01:51:47;23.10;49.30
26579;DHT22;14227;47.674;19.320;2022-07-06T01:54:13;23.10;49.30
26579;DHT22;14227;47.674;19.320;2022-07-06T01:56:39;23.20;49.40
26579;DHT22;14227;47.674;19.320;2022-07-06T01:59:04;23.20;49.40
26579;DHT22;14227;47.674;19.320;2022-07-06T02:01:30;23.10;49.20
26579;DHT22;14227;47.674;19.320;2022-07-06T02:03:55;23.20;49.30
26579;DHT22;14227;47.674;19.320;2022-07-06T02:06:21;23.10;49.10
26579;DHT22;14227;47.674;19.320;2022-07-06T02:08:47;23.10;49.00
26579;DHT22;14227;47.674;19.320;2022-07-06T02:11:13;23.10;48.90
26579;DHT22;14227;47.674;19.320;2022-07-06T02:13:39;23.20;48.70
26579;DHT22;14227;47.674;19.320;2022-07-06T02:16:05;23.20;48.70
26579;DHT22;14227;47.674;19.320;2022-07-06T02:18:30;23.20;48.70
26579;DHT22;14227;47.674;19.320;2022-07-06T02:20:56;23.20;48.70
26579;DHT22;14227;47.674;19.320;2022-07-06T02:23:22;23.20;48.60
26579;DHT22;14227;47.674;19.320;2022-07-06T02:25:48;23.20;48.60
26579;DHT22;14227;47.674;19.320;2022-07-06T02:28:14;23.20;48.50
26579;DHT22;14227;47.674;19.320;2022-07-06T02:30:39;23.20;48.50
26579;DHT22;14227;47.674;19.320;2022-07-06T02:33:05;23.20;48.50
26579;DHT22;14227;47.674;19.320;2022-07-06T02:35:30;23.10;48.40
26579;DHT22;14227;47.674;19.320;2022-07-06T02:37:56;23.10;48.70
26579;DHT22;14227;47.674;19.320;2022-07-06T02:40:22;23.10;48.50
26579;DHT22;14227;47.674;19.320;2022-07-06T02:42:47;23.10;48.70
26579;DHT22;14227;47.674;19.320;2022-07-06T02:45:13;23.10;48.70
26579;DHT22;14227;47.674;19.320;2022-07-06T02:47:39;23.10;48.60
26579;DHT22;14227;47.674;19.320;2022-07-06T02:50:05;23.10;48.60
26579;DHT22;14227;47.674;19.320;2022-07-06T02:52:31;23.10;48.60
26579;DHT22;14227;47.674;19.320;2022-07-06T02:54:56;23.10;48.40
26579;DHT22;14227;47.674;19.320;2022-07-06T02:57:22;23.10;48.60
26579;DHT22;14227;47.674;19.320;2022-07-06T02:59:48;23.10;48.40
26579;DHT22;14227;47.674;19.320;2022-07-06T03:02:16;23.10;48.40
26579;DHT22;14227;47.674;19.320;2022-07-06T03:04:42;23.00;48.40
26579;DHT22;14227;47.674;19.320;2022-07-06T03:07:07;23.10;48.60
26579;DHT22;14227;47.674;19.320;2022-07-06T03:09:33;23.00;48.40
26579;DHT22;14227;47.674;19.320;2022-07-06T03:11:59;23.00;48.40
26579;DHT22;14227;47.674;19.320;2022-07-06T03:14:25;23.10;48.60
26579;DHT22;14227;47.674;19.320;2022-07-06T03:16:51;23.00;48.40
26579;DHT22;14227;47.674;19.320;2022-07-06T03:19:17;23.00;48.20
26579;DHT22;14227;47.674;19.320;2022-07-06T03:21:42;23.00;47.90
26579;DHT22;14227;47.674;19.320;2022-07-06T03:24:08;23.10;48.00
26579;DHT22;14227;47.674;19.320;2022-07-06T03:26:34;23.10;48.10
26579;DHT22;14227;47.674;19.320;2022-07-06T03:28:59;23.10;48.20
26579;DHT22;14227;47.674;19.320;2022-07-06T03:31:25;23.10;48.30
26579;DHT22;14227;47.674;19.320;2022-07-06T03:33:51;23.00;48.10
26579;DHT22;14227;47.674;19.320;2022-07-06T03:36:17;23.00;48.30
26579;DHT22;14227;47.674;19.320;2022-07-06T03:38:43;23.10;48.60
26579;DHT22;14227;47.674;19.320;2022-07-06T03:41:09;23.00;49.00
26579;DHT22;14227;47.674;19.320;2022-07-06T03:43:34;23.00;48.50
26579;DHT22;14227;47.674;19.320;2022-07-06T03:46:00;23.00;48.50
26579;DHT22;14227;47.674;19.320;2022-07-06T03:48:26;23.10;48.60
26579;DHT22;14227;47.674;19.320;2022-07-06T03:50:51;23.00;48.20
26579;DHT22;14227;47.674;19.320;2022-07-06T03:53:17;23.00;48.40
26579;DHT22;14227;47.674;19.320;2022-07-06T03:55:43;23.00;48.40
26579;DHT22;14227;47.674;19.320;2022-07-06T03:58:29;23.10;48.40
26579;DHT22;14227;47.674;19.320;2022-07-06T04:00:54;23.10;48.30
26579;DHT22;14227;47.674;19.320;2022-07-06T04:03:20;23.00;48.00
26579;DHT22;14227;47.674;19.320;2022-07-06T04:05:46;23.10;48.30
26579;DHT22;14227;47.674;19.320;2022-07-06T04:08:11;23.10;48.40
26579;DHT22;14227;47.674;19.320;2022-07-06T04:10:37;23.10;49.00
26579;DHT22;14227;47.674;19.320;2022-07-06T04:13:02;23.10;48.40
26579;DHT22;14227;47.674;19.320;2022-07-06T04:15:28;23.10;48.40
26579;DHT22;14227;47.674;19.320;2022-07-06T04:17:54;23.00;48.40
26579;DHT22;14227;47.674;19.320;2022-07-06T04:20:21;23.00;48.20
26579;DHT22;14227;47.674;19.320;2022-07-06T04:22:48;23.10;48.40
26579;DHT22;14227;47.674;19.320;2022-07-06T04:25:14;23.10;48.40
26579;DHT22;14227;47.674;19.320;2022-07-06T04:27:39;23.10;48.40
26579;DHT22;14227;47.674;19.320;2022-07-06T04:30:07;23.10;48.50
26579;DHT22;14227;47.674;19.320;2022-07-06T04:32:33;23.10;48.60
26579;DHT22;14227;47.674;19.320;2022-07-06T04:34:58;23.10;48.70
26579;DHT22;14227;47.674;19.320;2022-07-06T04:37:24;23.10;48.80
26579;DHT22;14227;47.674;19.320;2022-07-06T04:39:50;23.00;48.80
26579;DHT22;14227;47.674;19.320;2022-07-06T04:42:15;23.00;48.90
26579;DHT22;14227;47.674;19.320;2022-07-06T04:44:41;23.00;49.00
26579;DHT22;14227;47.674;19.320;2022-07-06T04:47:07;23.00;48.80
26579;DHT22;14227;47.674;19.320;2022-07-06T04:49:32;23.10;48.90
26579;DHT22;14227;47.674;19.320;2022-07-06T04:51:58;23.00;49.10
26579;DHT22;14227;47.674;19.320;2022-07-06T04:54:24;23.10;49.10
26579;DHT22;14227;47.674;19.320;2022-07-06T04:56:50;23.10;49.10
26579;DHT22;14227;47.674;19.320;2022-07-06T04:59:16;23.10;49.10
26579;DHT22;14227;47.674;19.320;2022-07-06T05:01:41;23.10;49.10
26579;DHT22;14227;47.674;19.320;2022-07-06T05:04:08;23.20;49.20
26579;DHT22;14227;47.674;19.320;2022-07-06T05:06:34;23.10;49.00
26579;DHT22;14227;47.674;19.320;2022-07-06T05:09:00;23.10;49.10
26579;DHT22;14227;47.674;19.320;2022-07-06T05:11:26;23.10;49.30
26579;DHT22;14227;47.674;19.320;2022-07-06T05:13:52;23.10;49.30
26579;DHT22;14227;47.674;19.320;2022-07-06T05:16:18;23.20;49.60
26579;DHT22;14227;47.674;19.320;2022-07-06T05:18:44;23.20;49.40
26579;DHT22;14227;47.674;19.320;2022-07-06T05:21:09;23.20;49.40
26579;DHT22;14227;47.674;19.320;2022-07-06T05:23:35;23.20;49.30
26579;DHT22;14227;47.674;19.320;2022-07-06T05:26:01;23.20;49.20
26579;DHT22;14227;47.674;19.320;2022-07-06T05:28:27;23.20;49.10
26579;DHT22;14227;47.674;19.320;2022-07-06T05:30:53;23.20;49.00
26579;DHT22;14227;47.674;19.320;2022-07-06T05:33:19;23.20;49.10
26579;DHT22;14227;47.674;19.320;2022-07-06T05:35:44;23.20;49.00
26579;DHT22;14227;47.674;19.320;2022-07-06T05:38:10;23.30;49.10
26579;DHT22;14227;47.674;19.320;2022-07-06T05:40:36;23.30;49.10
26579;DHT22;14227;47.674;19.320;2022-07-06T05:43:02;23.30;49.00
26579;DHT22;14227;47.674;19.320;2022-07-06T05:45:28;23.30;49.10
26579;DHT22;14227;47.674;19.320;2022-07-06T05:47:54;23.30;48.90
26579;DHT22;14227;47.674;19.320;2022-07-06T05:50:38;23.40;48.90
26579;DHT22;14227;47.674;19.320;2022-07-06T05:53:04;23.30;48.80
26579;DHT22;14227;47.674;19.320;2022-07-06T05:55:30;23.40;48.80
26579;DHT22;14227;47.674;19.320;2022-07-06T05:57:56;23.50;48.60
26579;DHT22;14227;47.674;19.320;2022-07-06T06:00:23;23.50;48.50
26579;DHT22;14227;47.674;19.320;2022-07-06T06:02:49;23.60;48.40
26579;DHT22;14227;47.674;19.320;2022-07-06T06:05:16;23.60;48.00
26579;DHT22;14227;47.674;19.320;2022-07-06T06:07:42;23.70;48.40
26579;DHT22;14227;47.674;19.320;2022-07-06T06:10:10;23.70;48.10
26579;DHT22;14227;47.674;19.320;2022-07-06T06:12:36;23.80;48.60
26579;DHT22;14227;47.674;19.320;2022-07-06T06:15:03;23.80;48.10
26579;DHT22;14227;47.674;19.320;2022-07-06T06:17:29;23.90;47.80
26579;DHT22;14227;47.674;19.320;2022-07-06T06:19:55;23.90;47.80
26579;DHT22;14227;47.674;19.320;2022-07-06T06:22:20;24.00;47.90
26579;DHT22;14227;47.674;19.320;2022-07-06T06:24:46;24.00;47.90
26579;DHT22;14227;47.674;19.320;2022-07-06T06:27:12;24.00;47.90
26579;DHT22;14227;47.674;19.320;2022-07-06T06:29:38;24.10;48.00
26579;DHT22;14227;47.674;19.320;2022-07-06T06:32:04;24.10;47.60
26579;DHT22;14227;47.674;19.320;2022-07-06T06:34:31;24.20;47.50
26579;DHT22;14227;47.674;19.320;2022-07-06T06:36:57;24.20;47.20
26579;DHT22;14227;47.674;19.320;2022-07-06T06:39:23;24.30;47.30
26579;DHT22;14227;47.674;19.320;2022-07-06T06:41:48;24.30;47.20
26579;DHT22;14227;47.674;19.320;2022-07-06T06:44:14;24.40;46.90
26579;DHT22;14227;47.674;19.320;2022-07-06T06:46:40;24.40;46.60
26579;DHT22;14227;47.674;19.320;2022-07-06T06:49:06;24.50;46.60
26579;DHT22;14227;47.674;19.320;2022-07-06T06:51:33;24.50;46.20
26579;DHT22;14227;47.674;19.320;2022-07-06T06:53:59;24.60;46.10
26579;DHT22;14227;47.674;19.320;2022-07-06T06:56:25;24.60;46.10
26579;DHT22;14227;47.674;19.320;2022-07-06T06:58:50;24.60;46.10
26579;DHT22;14227;47.674;19.320;2022-07-06T07:01:16;24.70;46.00
26579;DHT22;14227;47.674;19.320;2022-07-06T07:03:42;24.70;45.60
26579;DHT22;14227;47.674;19.320;2022-07-06T07:06:07;24.70;45.60
26579;DHT22;14227;47.674;19.320;2022-07-06T07:08:33;24.80;45.80
26579;DHT22;14227;47.674;19.320;2022-07-06T07:10:59;24.80;45.70
26579;DHT22;14227;47.674;19.320;2022-07-06T07:13:24;24.90;45.60
26579;DHT22;14227;47.674;19.320;2022-07-06T07:15:50;25.00;45.70
26579;DHT22;14227;47.674;19.320;2022-07-06T07:18:16;25.00;45.20
26579;DHT22;14227;47.674;19.320;2022-07-06T07:20:41;25.10;45.10
26579;DHT22;14227;47.674;19.320;2022-07-06T07:23:07;25.20;45.10
26579;DHT22;14227;47.674;19.320;2022-07-06T07:25:33;25.20;44.70
26579;DHT22;14227;47.674;19.320;2022-07-06T07:27:58;25.30;44.30
26579;DHT22;14227;47.674;19.320;2022-07-06T07:30:24;25.40;44.10
26579;DHT22;14227;47.674;19.320;2022-07-06T07:32:50;25.40;43.60
26579;DHT22;14227;47.674;19.320;2022-07-06T07:35:15;25.50;43.70
26579;DHT22;14227;47.674;19.320;2022-07-06T07:37:41;25.50;43.60
26579;DHT22;14227;47.674;19.320;2022-07-06T07:40:07;25.50;43.90
26579;DHT22;14227;47.674;19.320;2022-07-06T07:42:33;25.60;43.50
26579;DHT22;14227;47.674;19.320;2022-07-06T07:44:59;25.70;43.10
26579;DHT22;14227;47.674;19.320;2022-07-06T07:47:24;25.70;43.40
26579;DHT22;14227;47.674;19.320;2022-07-06T07:49:50;25.80;43.40
26579;DHT22;14227;47.674;19.320;2022-07-06T07:52:16;25.80;42.90
26579;DHT22;14227;47.674;19.320;2022-07-06T07:54:41;25.80;43.20
26579;DHT22;14227;47.674;19.320;2022-07-06T07:57:07;25.90;43.00
26579;DHT22;14227;47.674;19.320;2022-07-06T07:59:32;26.00;42.60
26579;DHT22;14227;47.674;19.320;2022-07-06T08:01:58;26.10;42.30
26579;DHT22;14227;47.674;19.320;2022-07-06T08:04:24;26.10;42.20
26579;DHT22;14227;47.674;19.320;2022-07-06T08:06:49;26.20;41.80
26579;DHT22;14227;47.674;19.320;2022-07-06T08:09:15;26.30;41.90
26579;DHT22;14227;47.674;19.320;2022-07-06T08:11:42;26.40;41.30
26579;DHT22;14227;47.674;19.320;2022-07-06T08:14:08;26.50;41.10
26579;DHT22;14227;47.674;19.320;2022-07-06T08:16:34;26.50;40.50
26579;DHT22;14227;47.674;19.320;2022-07-06T08:19:00;26.60;40.10
26579;DHT22;14227;47.674;19.320;2022-07-06T08:21:25;26.70;40.00
26579;DHT22;14227;47.674;19.320;2022-07-06T08:23:52;26.70;39.50
26579;DHT22;14227;47.674;19.320;2022-07-06T08:26:18;26.80;40.10
26579;DHT22;14227;47.674;19.320;2022-07-06T08:28:44;26.80;38.90
26579;DHT22;14227;47.674;19.320;2022-07-06T08:31:10;26.80;38.90
26579;DHT22;14227;47.674;19.320;2022-07-06T08:33:35;26.90;39.00
26579;DHT22;14227;47.674;19.320;2022-07-06T08:36:01;27.00;39.00
26579;DHT22;14227;47.674;19.320;2022-07-06T08:38:27;27.00;39.00
26579;DHT22;14227;47.674;19.320;2022-07-06T08:40:53;27.00;39.00
26579;DHT22;14227;47.674;19.320;2022-07-06T08:43:19;27.00;39.90
26579;DHT22;14227;47.674;19.320;2022-07-06T08:45:46;27.10;39.10
26579;DHT22;14227;47.674;19.320;2022-07-06T08:48:13;27.20;39.20
26579;DHT22;14227;47.674;19.320;2022-07-06T08:50:39;27.30;39.20
26579;DHT22;14227;47.674;19.320;2022-07-06T08:53:05;27.30;38.10
26579;DHT22;14227;47.674;19.320;2022-07-06T08:55:31;27.40;38.70
26579;DHT22;14227;47.674;19.320;2022-07-06T08:57:57;27.50;36.90
26579;DHT22;14227;47.674;19.320;2022-07-06T09:00:24;27.60;36.60
26579;DHT22;14227;47.674;19.320;2022-07-06T09:02:50;27.70;37.00
26579;DHT22;14227;47.674;19.320;2022-07-06T09:05:17;27.70;36.30
26579;DHT22;14227;47.674;19.320;2022-07-06T09:07:45;27.80;36.20
26579;DHT22;14227;47.674;19.320;2022-07-06T09:10:14;27.80;35.00
26579;DHT22;14227;47.674;19.320;2022-07-06T09:12:41;27.80;35.30
26579;DHT22;14227;47.674;19.320;2022-07-06T09:15:06;27.80;35.00
26579;DHT22;14227;47.674;19.320;2022-07-06T09:17:32;27.90;34.40
26579;DHT22;14227;47.674;19.320;2022-07-06T09:19:58;27.90;34.70
26579;DHT22;14227;47.674;19.320;2022-07-06T09:22:31;28.00;34.40
26579;DHT22;14227;47.674;19.320;2022-07-06T09:25:14;28.00;34.00
26579;DHT22;14227;47.674;19.320;2022-07-06T09:27:42;28.10;34.80
26579;DHT22;14227;47.674;19.320;2022-07-06T09:30:10;28.20;34.10
26579;DHT22;14227;47.674;19.320;2022-07-06T09:32:44;28.20;33.30
26579;DHT22;14227;47.674;19.320;2022-07-06T09:35:30;28.30;33.00
26579;DHT22;14227;47.674;19.320;2022-07-06T09:38:01;28.40;34.70
26579;DHT22;14227;47.674;19.320;2022-07-06T09:40:27;28.50;33.80
26579;DHT22;14227;47.674;19.320;2022-07-06T09:43:13;28.50;33.20
26579;DHT22;14227;47.674;19.320;2022-07-06T09:45:51;28.60;33.10
26579;DHT22;14227;47.674;19.320;2022-07-06T09:48:27;28.70;32.00
26579;DHT22;14227;47.674;19.320;2022-07-06T09:51:02;28.70;31.60
26579;DHT22;14227;47.674;19.320;2022-07-06T09:53:28;28.80;31.40
26579;DHT22;14227;47.674;19.320;2022-07-06T09:55:55;28.90;30.60
26579;DHT22;14227;47.674;19.320;2022-07-06T09:58:21;28.90;30.30
26579;DHT22;14227;47.674;19.320;2022-07-06T10:00:48;28.90;31.30
26579;DHT22;14227;47.674;19.320;2022-07-06T10:03:15;29.00;30.80
26579;DHT22;14227;47.674;19.320;2022-07-06T10:05:44;29.00;31.50
26579;DHT22;14227;47.674;19.320;2022-07-06T10:08:13;29.10;31.10
26579;DHT22;14227;47.674;19.320;2022-07-06T10:10:41;29.10;30.10
26579;DHT22;14227;47.674;19.320;2022-07-06T10:13:08;29.20;29.20
26579;DHT22;14227;47.674;19.320;2022-07-06T10:15:36;29.20;29.70
26579;DHT22;14227;47.674;19.320;2022-07-06T10:18:08;29.30;30.70
26579;DHT22;14227;47.674;19.320;2022-07-06T10:20:37;29.30;29.30
26579;DHT22;14227;47.674;19.320;2022-07-06T10:23:04;29.40;29.40
26579;DHT22;14227;47.674;19.320;2022-07-06T10:25:32;29.40;28.70
26579;DHT22;14227;47.674;19.320;2022-07-06T10:27:58;29.50;27.90
26579;DHT22;14227;47.674;19.320;2022-07-06T10:30:25;29.50;28.00
26579;DHT22;14227;47.674;19.320;2022-07-06T10:32:51;29.60;28.40
26579;DHT22;14227;47.674;19.320;2022-07-06T10:35:20;29.70;28.30
26579;DHT22;14227;47.674;19.320;2022-07-06T10:38:03;29.70;27.40
26579;DHT22;14227;47.674;19.320;2022-07-06T10:40:37;29.80;27.20
26579;DHT22;14227;47.674;19.320;2022-07-06T10:43:22;29.80;27.10
26579;DHT22;14227;47.674;19.320;2022-07-06T10:50:46;29.70;26.50
26579;DHT22;14227;47.674;19.320;2022-07-06T10:53:13;29.80;27.70
26579;DHT22;14227;47.674;19.320;2022-07-06T10:55:41;29.80;27.60
26579;DHT22;14227;47.674;19.320;2022-07-06T10:58:14;29.90;26.70
26579;DHT22;14227;47.674;19.320;2022-07-06T11:00:53;29.90;26.80
26579;DHT22;14227;47.674;19.320;2022-07-06T11:06:25;30.00;26.20
26579;DHT22;14227;47.674;19.320;2022-07-06T11:08:58;30.10;26.10
26579;DHT22;14227;47.674;19.320;2022-07-06T11:14:15;30.20;25.50
26579;DHT22;14227;47.674;19.320;2022-07-06T11:19:17;30.40;24.60
26579;DHT22;14227;47.674;19.320;2022-07-06T11:21:46;30.40;23.90
26579;DHT22;14227;47.674;19.320;2022-07-06T11:24:21;30.50;23.60
26579;DHT22;14227;47.674;19.320;2022-07-06T11:26:49;30.50;23.50
26579;DHT22;14227;47.674;19.320;2022-07-06T11:29:17;30.60;23.70
26579;DHT22;14227;47.674;19.320;2022-07-06T11:31:45;30.60;23.70
26579;DHT22;14227;47.674;19.320;2022-07-06T11:34:14;30.60;24.00
26579;DHT22;14227;47.674;19.320;2022-07-06T11:36:42;30.70;23.70
26579;DHT22;14227;47.674;19.320;2022-07-06T11:39:08;30.70;23.40
26579;DHT22;14227;47.674;19.320;2022-07-06T11:41:34;30.80;23.30
26579;DHT22;14227;47.674;19.320;2022-07-06T11:44:00;30.80;23.20
26579;DHT22;14227;47.674;19.320;2022-07-06T11:46:27;30.90;24.20
26579;DHT22;14227;47.674;19.320;2022-07-06T11:48:58;31.00;23.90
26579;DHT22;14227;47.674;19.320;2022-07-06T11:51:26;31.00;22.70
26579;DHT22;14227;47.674;19.320;2022-07-06T11:53:55;30.90;22.30
26579;DHT22;14227;47.674;19.320;2022-07-06T11:56:21;31.00;22.90
26579;DHT22;14227;47.674;19.320;2022-07-06T11:58:52;31.00;21.70
26579;DHT22;14227;47.674;19.320;2022-07-06T12:01:18;31.10;21.70
26579;DHT22;14227;47.674;19.320;2022-07-06T12:03:44;31.10;21.60
26579;DHT22;14227;47.674;19.320;2022-07-06T12:06:16;31.20;22.10
26579;DHT22;14227;47.674;19.320;2022-07-06T12:08:52;31.10;21.70
26579;DHT22;14227;47.674;19.320;2022-07-06T12:11:26;31.20;21.00
26579;DHT22;14227;47.674;19.320;2022-07-06T12:13:57;31.20;21.70
26579;DHT22;14227;47.674;19.320;2022-07-06T12:16:33;31.30;22.10
26579;DHT22;14227;47.674;19.320;2022-07-06T12:19:00;31.30;21.00
26579;DHT22;14227;47.674;19.320;2022-07-06T12:21:26;31.40;21.10
26579;DHT22;14227;47.674;19.320;2022-07-06T12:23:53;31.50;21.20
26579;DHT22;14227;47.674;19.320;2022-07-06T12:26:21;31.40;21.40
26579;DHT22;14227;47.674;19.320;2022-07-06T12:29:01;31.50;20.80
26579;DHT22;14227;47.674;19.320;2022-07-06T12:31:35;31.50;21.60
26579;DHT22;14227;47.674;19.320;2022-07-06T12:34:01;31.40;22.00
26579;DHT22;14227;47.674;19.320;2022-07-06T12:36:27;31.40;22.20
26579;DHT22;14227;47.674;19.320;2022-07-06T12:38:52;31.30;21.10
26579;DHT22;14227;47.674;19.320;2022-07-06T12:41:29;31.30;21.80
26579;DHT22;14227;47.674;19.320;2022-07-06T12:44:06;31.20;21.00
26579;DHT22;14227;47.674;19.320;2022-07-06T12:46:40;31.20;21.00
26579;DHT22;14227;47.674;19.320;2022-07-06T12:49:21;31.20;21.00
26579;DHT22;14227;47.674;19.320;2022-07-06T12:54:25;31.30;21.10
26579;DHT22;14227;47.674;19.320;2022-07-06T12:57:07;31.40;20.30
26579;DHT22;14227;47.674;19.320;2022-07-06T13:07:23;31.50;18.90
26579;DHT22;14227;47.674;19.320;2022-07-06T13:09:49;31.40;19.70
26579;DHT22;14227;47.674;19.320;2022-07-06T13:12:15;31.50;18.80
26579;DHT22;14227;47.674;19.320;2022-07-06T13:14:40;31.50;19.70
26579;DHT22;14227;47.674;19.320;2022-07-06T13:17:07;31.40;19.50
26579;DHT22;14227;47.674;19.320;2022-07-06T13:19:32;31.40;20.50
26579;DHT22;14227;47.674;19.320;2022-07-06T13:21:58;31.30;19.90
26579;DHT22;14227;47.674;19.320;2022-07-06T13:24:24;31.30;20.00
26579;DHT22;14227;47.674;19.320;2022-07-06T13:26:49;31.40;19.80
26579;DHT22;14227;47.674;19.320;2022-07-06T13:29:16;31.40;19.90
26579;DHT22;14227;47.674;19.320;2022-07-06T13:31:41;31.40;19.50
26579;DHT22;14227;47.674;19.320;2022-07-06T13:34:07;31.40;20.60
26579;DHT22;14227;47.674;19.320;2022-07-06T13:36:34;31.40;20.30
26579;DHT22;14227;47.674;19.320;2022-07-06T13:39:00;31.40;19.40
26579;DHT22;14227;47.674;19.320;2022-07-06T13:41:27;31.40;19.50
26579;DHT22;14227;47.674;19.320;2022-07-06T13:43:52;31.50;19.50
26579;DHT22;14227;47.674;19.320;2022-07-06T13:46:18;31.40;19.20
26579;DHT22;14227;47.674;19.320;2022-07-06T13:48:44;31.50;19.00
26579;DHT22;14227;47.674;19.320;2022-07-06T13:51:10;31.50;18.90
26579;DHT22;14227;47.674;19.320;2022-07-06T13:53:36;31.50;19.10
26579;DHT22;14227;47.674;19.320;2022-07-06T13:56:02;31.50;19.40
26579;DHT22;14227;47.674;19.320;2022-07-06T13:58:28;31.60;20.10
26579;DHT22;14227;47.674;19.320;2022-07-06T14:00:54;31.60;20.40
26579;DHT22;14227;47.674;19.320;2022-07-06T14:03:19;31.60;20.30
26579;DHT22;14227;47.674;19.320;2022-07-06T14:05:45;31.70;20.30
26579;DHT22;14227;47.674;19.320;2022-07-06T14:08:11;31.70;20.60
26579;DHT22;14227;47.674;19.320;2022-07-06T14:10:36;31.70;20.50
26579;DHT22;14227;47.674;19.320;2022-07-06T14:13:02;31.60;20.60
26579;DHT22;14227;47.674;19.320;2022-07-06T14:15:28;31.60;21.00
26579;DHT22;14227;47.674;19.320;2022-07-06T14:17:53;31.60;20.50
26579;DHT22;14227;47.674;19.320;2022-07-06T14:20:19;31.50;20.30
26579;DHT22;14227;47.674;19.320;2022-07-06T14:22:45;31.50;20.80
26579;DHT22;14227;47.674;19.320;2022-07-06T14:25:10;31.50;21.00
26579;DHT22;14227;47.674;19.320;2022-07-06T14:27:36;31.50;20.60
26579;DHT22;14227;47.674;19.320;2022-07-06T14:30:03;31.50;20.20
26579;DHT22;14227;47.674;19.320;2022-07-06T14:32:29;31.50;20.40
26579;DHT22;14227;47.674;19.320;2022-07-06T14:34:55;31.50;20.70
26579;DHT22;14227;47.674;19.320;2022-07-06T14:37:21;31.50;20.20
26579;DHT22;14227;47.674;19.320;2022-07-06T14:39:46;31.50;20.20
26579;DHT22;14227;47.674;19.320;2022-07-06T14:42:14;31.50;20.00
26579;DHT22;14227;47.674;19.320;2022-07-06T14:44:39;31.50;20.00
26579;DHT22;14227;47.674;19.320;2022-07-06T14:47:05;31.50;19.30
26579;DHT22;14227;47.674;19.320;2022-07-06T14:49:31;31.50;19.30
26579;DHT22;14227;47.674;19.320;2022-07-06T14:51:57;31.50;20.20
26579;DHT22;14227;47.674;19.320;2022-07-06T14:54:23;31.50;19.40
26579;DHT22;14227;47.674;19.320;2022-07-06T14:56:49;31.50;18.50
26579;DHT22;14227;47.674;19.320;2022-07-06T14:59:15;31.50;19.00
26579;DHT22;14227;47.674;19.320;2022-07-06T15:01:41;31.50;18.30
26579;DHT22;14227;47.674;19.320;2022-07-06T15:04:06;31.50;18.40
26579;DHT22;14227;47.674;19.320;2022-07-06T15:06:32;31.40;19.20
26579;DHT22;14227;47.674;19.320;2022-07-06T15:08:58;31.40;18.60
26579;DHT22;14227;47.674;19.320;2022-07-06T15:11:26;31.30;19.50
26579;DHT22;14227;47.674;19.320;2022-07-06T15:13:52;31.30;19.10
26579;DHT22;14227;47.674;19.320;2022-07-06T15:16:17;31.30;18.90
26579;DHT22;14227;47.674;19.320;2022-07-06T15:18:43;31.40;20.00
26579;DHT22;14227;47.674;19.320;2022-07-06T15:21:08;31.30;18.90
26579;DHT22;14227;47.674;19.320;2022-07-06T15:23:35;31.30;19.30
26579;DHT22;14227;47.674;19.320;2022-07-06T15:26:02;31.30;19.10
26579;DHT22;14227;47.674;19.320;2022-07-06T15:28:28;31.30;19.00
26579;DHT22;14227;47.674;19.320;2022-07-06T15:30:54;31.30;19.70
26579;DHT22;14227;47.674;19.320;2022-07-06T15:33:20;31.30;20.30
26579;DHT22;14227;47.674;19.320;2022-07-06T15:35:46;31.20;19.50
26579;DHT22;14227;47.674;19.320;2022-07-06T15:38:13;31.20;19.40
26579;DHT22;14227;47.674;19.320;2022-07-06T15:40:38;31.20;18.70